Terminal Aerodrome Forecast
Issued by NWS

Home | Current Version | Previous Version | Text Only | Print | Product List | Glossary On
Versions: 1 2 3 4 5 6 7 8 9 10 11 12 13
000
FTUS46 KSTO 310500
TAFRBL
TAF
KRBL 310520Z 3106/0106 19005KT P6SM OVC120
     FM311200 16012KT P6SM -RA OVC025
      TEMPO 3115/3118 3SM RA OVC015
     FM312200 16008KT P6SM -SHRA SCT020 OVC050
     FM010200 17005KT P6SM -SHRA OVC050=

USA.gov is the U.S. government's official web portal to all federal, state and local government web resources and services.